createdAt,value
2022-12-14T00:00:30.307Z,33.69
2022-12-14T00:02:57.473Z,34.03
2022-12-14T00:05:24.419Z,33.63
2022-12-14T00:07:51.307Z,33.90
2022-12-14T00:10:18.162Z,33.53
2022-12-14T00:12:45.065Z,33.64
2022-12-14T00:15:12.136Z,33.43
2022-12-14T00:17:39.937Z,33.62
2022-12-14T00:20:07.144Z,33.72
2022-12-14T00:22:34.053Z,33.40
2022-12-14T00:25:00.900Z,33.58
2022-12-14T00:27:28.177Z,33.51
2022-12-14T00:29:55.077Z,33.76
2022-12-14T00:32:23.345Z,33.85
2022-12-14T00:34:50.238Z,33.46
2022-12-14T00:37:17.117Z,33.36
2022-12-14T00:39:44.037Z,33.55
2022-12-14T00:42:10.899Z,33.49
2022-12-14T00:44:37.807Z,33.54
2022-12-14T00:47:04.707Z,33.50
2022-12-14T00:49:31.597Z,33.50
2022-12-14T00:51:58.517Z,33.52
2022-12-14T00:54:25.389Z,33.77
2022-12-14T00:56:52.259Z,33.74
2022-12-14T00:59:22.875Z,34.06
2022-12-14T01:01:52.741Z,34.43
2022-12-14T01:04:19.943Z,34.35
2022-12-14T01:06:47.552Z,34.52
2022-12-14T01:09:14.865Z,34.42
2022-12-14T01:11:48.177Z,34.23
2022-12-14T01:14:17.632Z,34.65
2022-12-14T01:16:44.852Z,34.87
2022-12-14T01:19:12.877Z,34.75
2022-12-14T01:21:39.966Z,34.60
2022-12-14T01:24:07.527Z,34.65
2022-12-14T01:26:37.098Z,34.68
2022-12-14T01:29:04.644Z,34.86
2022-12-14T01:31:32.880Z,35.40
2022-12-14T01:33:59.777Z,35.29
2022-12-14T01:36:27.737Z,35.11
2022-12-14T01:38:55.945Z,35.62
2022-12-14T01:41:23.020Z,35.68
2022-12-14T01:43:50.285Z,35.72
2022-12-14T01:46:21.183Z,35.74
2022-12-14T01:48:48.445Z,35.73
2022-12-14T01:51:15.444Z,35.48
2022-12-14T01:53:42.325Z,35.60
2022-12-14T01:56:09.276Z,35.76
2022-12-14T01:58:36.236Z,35.48
2022-12-14T02:01:03.577Z,35.41
2022-12-14T02:03:33.655Z,35.32
2022-12-14T02:06:03.213Z,35.38
2022-12-14T02:08:30.397Z,35.48
2022-12-14T02:10:57.864Z,35.65
2022-12-14T02:13:34.909Z,35.91
2022-12-14T02:16:01.820Z,35.58
2022-12-14T02:18:29.843Z,36.09
2022-12-14T02:20:56.936Z,35.85
2022-12-14T02:23:24.223Z,36.14
2022-12-14T02:26:03.387Z,35.87
2022-12-14T02:28:43.579Z,35.93
2022-12-14T02:31:10.737Z,35.79
2022-12-14T02:33:47.136Z,35.85
2022-12-14T02:36:19.326Z,36.16
2022-12-14T02:38:55.920Z,36.11
2022-12-14T02:41:29.997Z,35.94
2022-12-14T02:44:03.790Z,35.71
2022-12-14T02:46:33.913Z,35.82
2022-12-14T02:49:03.369Z,36.13
2022-12-14T02:51:52.816Z,36.32
2022-12-14T02:54:32.505Z,36.12
2022-12-14T02:57:09.414Z,36.40
2022-12-14T02:59:36.109Z,36.25
2022-12-14T03:02:03.743Z,36.57
2022-12-14T03:04:30.685Z,36.43
2022-12-14T03:07:02.871Z,36.27
2022-12-14T03:09:30.477Z,36.38
2022-12-14T03:12:07.272Z,36.59
2022-12-14T03:14:33.824Z,36.46
2022-12-14T03:17:09.537Z,36.38
2022-12-14T03:19:39.750Z,36.47
2022-12-14T03:22:09.461Z,36.28
2022-12-14T03:24:39.526Z,36.68
2022-12-14T03:27:10.152Z,36.54
2022-12-14T03:29:42.313Z,36.76
2022-12-14T03:32:11.143Z,36.54
2022-12-14T03:34:40.583Z,36.46
2022-12-14T03:37:07.189Z,36.48
2022-12-14T03:39:34.735Z,36.78
2022-12-14T03:42:16.500Z,36.46
2022-12-14T03:44:49.590Z,36.68
2022-12-14T03:47:35.043Z,36.43
2022-12-14T03:50:05.576Z,36.54
2022-12-14T03:52:36.459Z,36.56
2022-12-14T03:55:09.861Z,36.70
2022-12-14T03:57:39.238Z,36.85
2022-12-14T04:00:07.900Z,36.71
2022-12-14T04:02:42.843Z,37.02
2022-12-14T04:05:13.905Z,37.15
2022-12-14T04:07:56.137Z,36.90
2022-12-14T04:10:47.440Z,36.86
2022-12-14T04:13:38.051Z,37.00
2022-12-14T04:16:30.409Z,37.26
2022-12-14T04:19:03.569Z,36.96
2022-12-14T04:21:42.584Z,37.06
2022-12-14T04:24:32.829Z,37.24
2022-12-14T04:27:07.435Z,37.02
2022-12-14T04:29:53.815Z,37.03
2022-12-14T04:32:22.959Z,37.38
2022-12-14T04:34:57.214Z,36.97
2022-12-14T04:37:26.140Z,37.39
2022-12-14T04:39:54.851Z,36.99
2022-12-14T04:42:27.901Z,37.54
2022-12-14T04:44:58.757Z,37.20
2022-12-14T04:47:30.745Z,37.53
2022-12-14T04:50:00.487Z,37.40
2022-12-14T04:52:47.358Z,37.42
2022-12-14T04:55:16.942Z,37.63
2022-12-14T04:57:47.793Z,37.60
2022-12-14T05:00:15.069Z,37.85
2022-12-14T05:02:41.807Z,37.82
2022-12-14T05:05:11.252Z,37.80
2022-12-14T05:07:40.707Z,37.81
2022-12-14T05:10:12.781Z,38.20
2022-12-14T05:12:43.463Z,37.92
2022-12-14T05:15:21.159Z,38.32
2022-12-14T05:17:48.069Z,38.49
2022-12-14T05:20:15.997Z,38.18
2022-12-14T05:22:42.870Z,38.27
2022-12-14T05:25:09.678Z,38.35
2022-12-14T05:27:36.369Z,38.56
2022-12-14T05:30:03.566Z,38.98
2022-12-14T05:32:30.536Z,39.45
2022-12-14T05:34:57.202Z,39.58
2022-12-14T05:37:23.860Z,39.51
2022-12-14T05:39:50.504Z,39.66
2022-12-14T05:42:17.242Z,39.53
2022-12-14T05:44:43.854Z,39.79
2022-12-14T05:47:10.954Z,39.87
2022-12-14T05:49:37.598Z,40.03
2022-12-14T05:52:04.505Z,39.92
2022-12-14T05:54:31.225Z,39.76
2022-12-14T05:56:57.852Z,39.45
2022-12-14T05:59:24.548Z,39.75
2022-12-14T06:01:51.445Z,39.63
2022-12-14T06:04:18.727Z,39.94
2022-12-14T06:06:45.542Z,39.83
2022-12-14T06:09:14.428Z,39.30
2022-12-14T06:11:41.911Z,39.18
2022-12-14T06:14:09.204Z,39.51
2022-12-14T06:16:36.478Z,39.42
2022-12-14T06:19:04.432Z,39.30
2022-12-14T06:21:32.816Z,39.34
2022-12-14T06:24:00.084Z,38.88
2022-12-14T06:26:27.717Z,39.22
2022-12-14T06:28:55.385Z,39.22
2022-12-14T06:31:23.252Z,38.73
2022-12-14T06:33:50.230Z,38.66
2022-12-14T06:36:23.008Z,38.63
2022-12-14T06:38:52.184Z,38.87
2022-12-14T06:41:19.619Z,39.02
2022-12-14T06:43:49.760Z,39.08
2022-12-14T06:46:18.222Z,39.15
2022-12-14T06:48:48.911Z,38.72
2022-12-14T06:51:19.701Z,39.02
2022-12-14T06:53:46.796Z,38.54
2022-12-14T06:56:15.299Z,38.81
2022-12-14T06:58:42.496Z,38.60
2022-12-14T07:01:14.346Z,38.56
2022-12-14T07:03:41.621Z,38.32
2022-12-14T07:06:08.492Z,38.59
2022-12-14T07:08:36.104Z,38.39
2022-12-14T07:11:03.607Z,38.58
2022-12-14T07:13:30.830Z,38.21
2022-12-14T07:15:58.789Z,38.48
2022-12-14T07:18:31.417Z,38.24
2022-12-14T07:21:02.258Z,38.31
2022-12-14T07:23:30.395Z,38.50
2022-12-14T07:26:04.860Z,38.40
2022-12-14T07:28:32.028Z,38.08
2022-12-14T07:30:59.793Z,37.60
2022-12-14T07:33:27.381Z,37.71
2022-12-14T07:36:03.541Z,37.43
2022-12-14T07:38:30.507Z,37.11
2022-12-14T07:41:17.677Z,37.34
2022-12-14T07:43:49.814Z,36.88
2022-12-14T07:46:18.917Z,37.09
2022-12-14T07:48:46.742Z,36.65
2022-12-14T07:51:20.835Z,36.49
2022-12-14T07:53:48.622Z,36.82
2022-12-14T07:56:16.568Z,36.40
2022-12-14T07:58:43.338Z,36.51
2022-12-14T08:01:11.673Z,36.59
2022-12-14T08:03:39.185Z,33.86
2022-12-14T08:06:07.293Z,33.98
2022-12-14T08:08:34.221Z,33.82
2022-12-14T08:11:00.964Z,33.47
2022-12-14T08:13:28.430Z,33.73
2022-12-14T08:15:55.404Z,33.95
2022-12-14T08:18:26.121Z,33.89
2022-12-14T08:20:53.412Z,33.50
2022-12-14T08:23:20.158Z,33.75
2022-12-14T08:25:52.378Z,33.45
2022-12-14T08:28:19.518Z,34.00
2022-12-14T08:30:46.245Z,33.93
2022-12-14T08:33:12.896Z,34.10
2022-12-14T08:35:39.741Z,34.23
2022-12-14T08:38:06.595Z,34.17
2022-12-14T08:40:36.828Z,34.60
2022-12-14T08:43:03.828Z,34.25
2022-12-14T08:45:30.464Z,34.58
2022-12-14T08:47:58.399Z,34.15
2022-12-14T08:50:25.324Z,34.18
2022-12-14T08:52:52.394Z,34.09
2022-12-14T08:55:25.452Z,34.09
2022-12-14T08:57:54.399Z,34.17
2022-12-14T09:00:21.071Z,34.16
2022-12-14T09:02:50.046Z,34.30
2022-12-14T09:05:17.227Z,34.36
2022-12-14T09:07:43.881Z,34.08
2022-12-14T09:10:11.321Z,33.92
2022-12-14T09:12:45.177Z,33.84
2022-12-14T09:15:12.111Z,34.07
2022-12-14T09:17:38.931Z,34.22
2022-12-14T09:20:05.897Z,33.88
2022-12-14T09:22:32.650Z,34.19
2022-12-14T09:24:59.317Z,34.15
2022-12-14T09:27:26.013Z,34.14
2022-12-14T09:29:52.656Z,33.77
2022-12-14T09:32:19.229Z,33.88
2022-12-14T09:34:45.807Z,33.77
2022-12-14T09:37:12.804Z,33.76
2022-12-14T09:39:39.550Z,34.04
2022-12-14T09:42:35.718Z,33.57
2022-12-14T09:45:02.371Z,33.64
2022-12-14T09:47:32.823Z,33.34
2022-12-14T09:50:07.183Z,33.43
2022-12-14T09:52:41.112Z,33.19
2022-12-14T09:55:17.156Z,33.49
2022-12-14T09:57:44.421Z,33.38
2022-12-14T10:00:14.193Z,32.94
2022-12-14T10:02:46.534Z,33.17
2022-12-14T10:05:32.026Z,32.84
2022-12-14T10:08:04.316Z,32.92
2022-12-14T10:10:49.780Z,33.13
2022-12-14T10:13:21.114Z,32.63
2022-12-14T10:15:57.534Z,32.84
2022-12-14T10:18:58.979Z,32.85
2022-12-14T10:21:31.770Z,32.53
2022-12-14T10:24:01.020Z,32.76
2022-12-14T10:26:31.442Z,32.85
2022-12-14T10:29:27.518Z,32.58
2022-12-14T10:32:03.558Z,32.58
2022-12-14T10:34:31.314Z,32.52
2022-12-14T10:37:07.876Z,32.69
2022-12-14T10:39:43.635Z,32.44
2022-12-14T10:42:22.348Z,32.70
2022-12-14T10:45:04.383Z,32.62
2022-12-14T10:47:44.665Z,32.46
2022-12-14T10:50:20.432Z,31.69
2022-12-14T10:52:49.342Z,31.56
2022-12-14T10:55:18.849Z,31.57
2022-12-14T10:57:45.478Z,31.67
2022-12-14T11:00:22.600Z,31.61
2022-12-14T11:02:54.519Z,31.54
2022-12-14T11:05:24.379Z,31.74
2022-12-14T11:07:51.164Z,31.21
2022-12-14T11:10:25.930Z,31.52
2022-12-14T11:12:55.516Z,31.33
2022-12-14T11:15:33.693Z,31.49
2022-12-14T11:18:03.925Z,31.70
2022-12-14T11:20:30.865Z,31.49
2022-12-14T11:22:59.341Z,31.78
2022-12-14T11:25:35.544Z,31.62
2022-12-14T11:28:17.341Z,31.67
2022-12-14T11:31:16.544Z,32.16
2022-12-14T11:33:50.132Z,31.83
2022-12-14T11:36:23.208Z,32.25
2022-12-14T11:39:00.609Z,32.20
2022-12-14T11:41:38.635Z,31.97
2022-12-14T11:44:14.389Z,32.35
2022-12-14T11:46:59.249Z,32.29
2022-12-14T11:49:32.656Z,32.09
2022-12-14T11:52:00.970Z,32.09
2022-12-14T11:54:28.064Z,31.95
2022-12-14T11:57:03.174Z,32.33
2022-12-14T11:59:41.253Z,32.13
2022-12-14T12:02:22.434Z,32.29
2022-12-14T12:04:57.579Z,32.21
2022-12-14T12:07:44.408Z,31.81
2022-12-14T12:10:13.778Z,32.13
2022-12-14T12:12:52.608Z,31.90
2022-12-14T12:15:30.561Z,32.13
2022-12-14T12:18:01.217Z,31.78
2022-12-14T12:20:50.590Z,32.13
2022-12-14T12:23:20.379Z,31.64
2022-12-14T12:25:48.832Z,32.00
2022-12-14T12:28:20.863Z,31.68
2022-12-14T12:30:50.164Z,31.55
2022-12-14T12:33:29.076Z,31.57
2022-12-14T12:35:56.675Z,31.77
2022-12-14T12:38:26.325Z,31.67
2022-12-14T12:40:56.877Z,31.20
2022-12-14T12:43:50.235Z,31.51
2022-12-14T12:46:19.202Z,31.47
2022-12-14T12:48:48.947Z,31.12
2022-12-14T12:51:30.238Z,31.28
2022-12-14T12:53:59.948Z,31.41
2022-12-14T12:56:36.660Z,31.46
2022-12-14T12:59:04.470Z,31.70
2022-12-14T13:01:52.065Z,31.59
2022-12-14T13:04:32.395Z,31.67
2022-12-14T13:07:03.325Z,31.87
2022-12-14T13:09:39.844Z,32.15
2022-12-14T13:12:11.327Z,31.65
2022-12-14T13:14:42.415Z,31.58
2022-12-14T13:17:21.688Z,31.51
2022-12-14T13:19:52.663Z,31.79
2022-12-14T13:22:30.794Z,31.82
2022-12-14T13:25:26.897Z,31.81
2022-12-14T13:28:19.770Z,31.89
2022-12-14T13:30:53.740Z,31.75
2022-12-14T13:33:20.347Z,31.84
2022-12-14T13:35:47.036Z,31.83
2022-12-14T13:38:31.163Z,32.11
2022-12-14T13:41:17.271Z,31.90
2022-12-14T13:44:02.754Z,31.83
2022-12-14T13:46:30.055Z,31.89
2022-12-14T13:49:03.225Z,32.19
2022-12-14T13:51:31.077Z,32.21
2022-12-14T13:53:59.386Z,32.83
2022-12-14T13:56:34.141Z,32.76
2022-12-14T13:59:03.133Z,32.54
2022-12-14T14:01:48.114Z,32.58
2022-12-14T14:04:18.646Z,32.45
2022-12-14T14:06:47.803Z,32.39
2022-12-14T14:09:24.793Z,32.44
2022-12-14T14:12:01.725Z,32.28
2022-12-14T14:14:37.341Z,32.25
2022-12-14T14:17:09.498Z,32.15
2022-12-14T14:19:39.695Z,31.81
2022-12-14T14:22:26.055Z,31.67
2022-12-14T14:24:53.065Z,31.71
2022-12-14T14:27:20.710Z,31.74
2022-12-14T14:29:49.336Z,31.81
2022-12-14T14:32:37.374Z,31.67
2022-12-14T14:35:06.171Z,31.82
2022-12-14T14:37:34.729Z,31.53
2022-12-14T14:40:13.274Z,31.90
2022-12-14T14:42:53.332Z,31.57
2022-12-14T14:45:38.077Z,31.64
2022-12-14T14:48:23.214Z,31.56
2022-12-14T14:51:01.164Z,31.87
2022-12-14T14:53:29.239Z,31.79
2022-12-14T14:56:05.135Z,31.81
2022-12-14T14:58:39.260Z,32.04
2022-12-14T15:01:06.486Z,31.94
2022-12-14T15:03:43.464Z,32.00
2022-12-14T15:06:15.811Z,32.04
2022-12-14T15:08:47.943Z,31.92
2022-12-14T15:11:19.421Z,31.85
2022-12-14T15:13:48.309Z,32.08
2022-12-14T15:16:21.545Z,31.77
2022-12-14T15:18:53.994Z,31.85
2022-12-14T15:21:20.719Z,32.25
2022-12-14T15:23:52.407Z,32.30
2022-12-14T15:26:21.241Z,31.89
2022-12-14T15:28:52.210Z,31.96
2022-12-14T15:32:01.269Z,32.25
2022-12-14T15:34:28.295Z,32.46
2022-12-14T15:36:55.407Z,32.40
2022-12-14T15:39:29.705Z,32.07
2022-12-14T15:42:03.835Z,32.37
2022-12-14T15:44:30.406Z,32.22
2022-12-14T15:46:57.055Z,32.19
2022-12-14T15:49:23.984Z,32.39
2022-12-14T15:51:51.471Z,32.35
2022-12-14T15:54:19.826Z,32.36
2022-12-14T15:56:51.053Z,32.58
2022-12-14T15:59:21.802Z,32.40
2022-12-14T16:01:55.283Z,32.56
2022-12-14T16:04:25.993Z,32.79
2022-12-14T16:07:08.471Z,32.89
2022-12-14T16:09:38.132Z,32.70
2022-12-14T16:12:08.160Z,32.93
2022-12-14T16:14:44.130Z,32.80
2022-12-14T16:17:16.633Z,33.13
2022-12-14T16:19:59.667Z,33.21
2022-12-14T16:22:28.418Z,33.04
2022-12-14T16:25:00.692Z,33.05
2022-12-14T16:27:28.320Z,33.09
2022-12-14T16:30:05.191Z,33.25
2022-12-14T16:32:31.836Z,33.28
2022-12-14T16:34:59.716Z,33.17
2022-12-14T16:37:41.876Z,33.41
2022-12-14T16:40:34.992Z,33.29
2022-12-14T16:43:02.403Z,33.31
2022-12-14T16:45:46.174Z,33.41
2022-12-14T16:48:22.431Z,33.88
2022-12-14T16:50:57.392Z,33.81
2022-12-14T16:53:30.021Z,33.58
2022-12-14T16:56:05.274Z,33.69
2022-12-14T16:58:32.348Z,33.87
2022-12-14T17:01:01.780Z,33.71
2022-12-14T17:03:30.818Z,33.97
2022-12-14T17:06:01.765Z,33.89
2022-12-14T17:08:28.508Z,34.07
2022-12-14T17:10:55.515Z,34.16
2022-12-14T17:13:22.117Z,34.08
2022-12-14T17:16:07.964Z,33.81
2022-12-14T17:18:37.899Z,33.88
2022-12-14T17:21:05.612Z,34.24
2022-12-14T17:23:32.788Z,34.32
2022-12-14T17:25:59.837Z,34.35
2022-12-14T17:28:28.352Z,34.21
2022-12-14T17:30:57.569Z,34.14
2022-12-14T17:33:27.999Z,34.11
2022-12-14T17:35:55.537Z,33.96
2022-12-14T17:38:22.552Z,34.00
2022-12-14T17:40:50.647Z,34.03
2022-12-14T17:43:22.362Z,34.10
2022-12-14T17:45:49.084Z,34.38
2022-12-14T17:48:16.693Z,34.13
2022-12-14T17:50:44.842Z,34.49
2022-12-14T17:53:15.189Z,34.12
2022-12-14T17:55:41.833Z,34.17
2022-12-14T17:58:10.215Z,34.61
2022-12-14T18:00:55.842Z,34.35
2022-12-14T18:03:22.529Z,34.34
2022-12-14T18:05:49.872Z,34.27
2022-12-14T18:08:20.100Z,34.44
2022-12-14T18:10:47.560Z,34.44
2022-12-14T18:13:14.249Z,34.55
2022-12-14T18:15:49.617Z,34.52
2022-12-14T18:18:17.766Z,34.48
2022-12-14T18:20:45.455Z,34.31
2022-12-14T18:23:16.576Z,34.44
2022-12-14T18:26:05.385Z,34.58
2022-12-14T18:28:32.200Z,34.33
2022-12-14T18:31:02.168Z,34.30
2022-12-14T18:33:29.222Z,34.50
2022-12-14T18:35:56.987Z,34.62
2022-12-14T18:38:24.129Z,34.70
2022-12-14T18:40:51.765Z,34.52
2022-12-14T18:43:23.782Z,34.43
2022-12-14T18:45:51.683Z,34.29
2022-12-14T18:48:18.312Z,34.48
2022-12-14T18:50:45.130Z,34.87
2022-12-14T18:53:15.617Z,34.73
2022-12-14T18:55:42.890Z,34.93
2022-12-14T18:58:14.696Z,34.72
2022-12-14T19:00:41.426Z,34.99
2022-12-14T19:03:08.327Z,34.78
2022-12-14T19:05:35.321Z,34.68
2022-12-14T19:08:02.003Z,35.14
2022-12-14T19:10:31.245Z,34.84
2022-12-14T19:12:58.367Z,35.04
2022-12-14T19:15:38.522Z,35.17
2022-12-14T19:18:05.285Z,34.77
2022-12-14T19:20:32.075Z,35.00
2022-12-14T19:22:58.945Z,35.11
2022-12-14T19:25:25.797Z,35.13
2022-12-14T19:30:40.841Z,34.77
2022-12-14T19:33:07.470Z,35.01
2022-12-14T19:35:34.093Z,35.20
2022-12-14T19:38:02.657Z,35.19
2022-12-14T19:40:29.328Z,35.10
2022-12-14T19:42:57.166Z,34.96
2022-12-14T19:45:23.791Z,34.68
2022-12-14T19:47:50.863Z,35.03
2022-12-14T19:50:17.655Z,34.84
2022-12-14T19:52:44.313Z,34.73
2022-12-14T19:55:12.130Z,34.63
2022-12-14T19:57:39.531Z,34.88
2022-12-14T20:00:06.914Z,34.86
2022-12-14T20:02:35.212Z,34.95
2022-12-14T20:05:02.032Z,34.67
2022-12-14T20:07:30.114Z,34.38
2022-12-14T20:09:56.991Z,34.30
2022-12-14T20:12:25.561Z,34.35
2022-12-14T20:14:52.340Z,34.57
2022-12-14T20:17:19.494Z,34.52
2022-12-14T20:19:46.261Z,34.34
2022-12-14T20:22:15.127Z,34.45
2022-12-14T20:24:43.329Z,34.45
2022-12-14T20:27:10.305Z,34.04
2022-12-14T20:29:37.513Z,34.31
2022-12-14T20:32:07.015Z,34.02
2022-12-14T20:34:33.624Z,34.24
2022-12-14T20:37:00.914Z,34.27
2022-12-14T20:39:27.669Z,34.06
2022-12-14T20:41:54.729Z,34.09
2022-12-14T20:44:21.458Z,34.12
2022-12-14T20:46:51.898Z,34.05
2022-12-14T20:49:19.831Z,33.82
2022-12-14T20:51:47.397Z,33.99
2022-12-14T20:54:15.602Z,34.10
2022-12-14T20:56:43.530Z,33.68
2022-12-14T20:59:10.688Z,33.97
2022-12-14T21:01:38.773Z,33.52
2022-12-14T21:04:06.901Z,33.73
2022-12-14T21:06:36.336Z,33.77
2022-12-14T21:09:05.756Z,33.68
2022-12-14T21:12:01.819Z,33.57
2022-12-14T21:14:31.573Z,33.68
2022-12-14T21:17:00.805Z,33.56
2022-12-14T21:19:28.388Z,33.40
2022-12-14T21:21:55.157Z,33.28
2022-12-14T21:24:44.728Z,33.71
2022-12-14T21:27:10.216Z,33.51
2022-12-14T21:29:36.868Z,33.21
2022-12-14T21:32:04.497Z,33.29
2022-12-14T21:34:32.027Z,33.29
2022-12-14T21:36:59.181Z,33.35
2022-12-14T21:39:25.936Z,33.10
2022-12-14T21:42:10.728Z,33.06
2022-12-14T21:44:37.674Z,33.29
2022-12-14T21:47:05.549Z,33.03
2022-12-14T21:49:32.244Z,33.31
2022-12-14T21:51:58.913Z,33.01
2022-12-14T21:54:25.951Z,33.23
2022-12-14T21:57:11.213Z,33.12
2022-12-14T21:59:39.084Z,33.25
2022-12-14T22:02:07.630Z,33.06
2022-12-14T22:04:39.563Z,32.80
2022-12-14T22:07:06.570Z,33.05
2022-12-14T22:09:33.234Z,33.13
2022-12-14T22:11:59.848Z,32.79
2022-12-14T22:14:31.778Z,32.83
2022-12-14T22:16:58.416Z,33.10
2022-12-14T22:19:25.369Z,32.92
2022-12-14T22:21:52.745Z,33.05
2022-12-14T22:24:21.111Z,33.03
2022-12-14T22:26:48.198Z,32.56
2022-12-14T22:29:16.090Z,32.57
2022-12-14T22:31:43.320Z,32.78
2022-12-14T22:34:20.685Z,32.68
2022-12-14T22:36:48.020Z,32.46
2022-12-14T22:39:14.853Z,32.80
2022-12-14T22:41:41.646Z,32.86
2022-12-14T22:44:09.756Z,32.89
2022-12-14T22:46:36.452Z,32.77
2022-12-14T22:49:04.302Z,32.99
2022-12-14T22:51:31.071Z,33.10
2022-12-14T22:53:57.951Z,33.55
2022-12-14T22:56:46.182Z,33.41
2022-12-14T22:59:17.631Z,33.21
2022-12-14T23:01:50.028Z,33.13
2022-12-14T23:04:17.835Z,33.44
2022-12-14T23:06:45.665Z,33.75
2022-12-14T23:09:30.875Z,33.84
2022-12-14T23:12:21.579Z,33.54
2022-12-14T23:15:14.086Z,33.46
2022-12-14T23:18:07.498Z,33.87
2022-12-14T23:20:53.307Z,33.41
2022-12-14T23:23:39.195Z,33.46
2022-12-14T23:26:25.029Z,33.82
2022-12-14T23:29:10.770Z,33.56
2022-12-14T23:31:56.079Z,33.68
2022-12-14T23:34:41.256Z,33.74
2022-12-14T23:37:26.831Z,33.48
2022-12-14T23:40:11.790Z,33.30
2022-12-14T23:42:56.998Z,33.52
2022-12-14T23:45:42.142Z,33.59
2022-12-14T23:48:27.247Z,33.72
2022-12-14T23:51:13.045Z,33.63
2022-12-14T23:53:57.970Z,33.37
2022-12-14T23:56:43.046Z,33.39
2022-12-14T23:59:32.831Z,33.35
